sensor_id;sensor_type;location;lat;lon;timestamp;P1;durP1;ratioP1;P2;durP2;ratioP2
568;SDS011;269;48.884;9.192;2023-03-25T00:02:25;1.75;;;0.80;;
568;SDS011;269;48.884;9.192;2023-03-25T00:04:54;2.65;;;0.70;;
568;SDS011;269;48.884;9.192;2023-03-25T00:07:21;1.77;;;0.70;;
568;SDS011;269;48.884;9.192;2023-03-25T00:09:48;3.38;;;1.13;;
568;SDS011;269;48.884;9.192;2023-03-25T00:12:15;1.30;;;0.70;;
568;SDS011;269;48.884;9.192;2023-03-25T00:14:43;0.82;;;0.63;;
568;SDS011;269;48.884;9.192;2023-03-25T00:17:18;1.67;;;0.77;;
568;SDS011;269;48.884;9.192;2023-03-25T00:19:47;1.98;;;0.80;;
568;SDS011;269;48.884;9.192;2023-03-25T00:22:16;1.35;;;0.70;;
568;SDS011;269;48.884;9.192;2023-03-25T00:24:43;3.63;;;0.80;;
568;SDS011;269;48.884;9.192;2023-03-25T00:27:11;1.52;;;0.90;;
568;SDS011;269;48.884;9.192;2023-03-25T00:29:38;1.35;;;0.80;;
568;SDS011;269;48.884;9.192;2023-03-25T00:32:06;0.82;;;0.70;;
568;SDS011;269;48.884;9.192;2023-03-25T00:34:33;1.88;;;1.45;;
568;SDS011;269;48.884;9.192;2023-03-25T00:37:07;1.90;;;1.35;;
568;SDS011;269;48.884;9.192;2023-03-25T00:39:35;3.95;;;2.67;;
568;SDS011;269;48.884;9.192;2023-03-25T00:42:02;2.17;;;1.70;;
568;SDS011;269;48.884;9.192;2023-03-25T00:44:29;1.65;;;1.13;;
568;SDS011;269;48.884;9.192;2023-03-25T00:46:57;2.40;;;0.77;;
568;SDS011;269;48.884;9.192;2023-03-25T00:49:24;1.25;;;0.60;;
568;SDS011;269;48.884;9.192;2023-03-25T00:51:53;1.63;;;0.60;;
568;SDS011;269;48.884;9.192;2023-03-25T00:54:21;2.17;;;0.70;;
568;SDS011;269;48.884;9.192;2023-03-25T00:56:49;2.60;;;0.80;;
568;SDS011;269;48.884;9.192;2023-03-25T00:59:17;3.08;;;0.70;;
568;SDS011;269;48.884;9.192;2023-03-25T01:01:45;0.60;;;0.50;;
568;SDS011;269;48.884;9.192;2023-03-25T01:04:12;1.67;;;0.80;;
568;SDS011;269;48.884;9.192;2023-03-25T01:06:41;1.75;;;0.70;;
568;SDS011;269;48.884;9.192;2023-03-25T01:09:09;1.10;;;0.80;;
568;SDS011;269;48.884;9.192;2023-03-25T01:11:41;1.27;;;0.82;;
568;SDS011;269;48.884;9.192;2023-03-25T01:14:10;1.35;;;0.70;;
568;SDS011;269;48.884;9.192;2023-03-25T01:16:39;0.85;;;0.60;;
568;SDS011;269;48.884;9.192;2023-03-25T01:19:06;1.80;;;0.95;;
568;SDS011;269;48.884;9.192;2023-03-25T01:21:34;1.13;;;0.60;;
568;SDS011;269;48.884;9.192;2023-03-25T01:24:01;1.02;;;0.73;;
568;SDS011;269;48.884;9.192;2023-03-25T01:26:29;1.40;;;1.00;;
568;SDS011;269;48.884;9.192;2023-03-25T01:28:58;2.30;;;0.95;;
568;SDS011;269;48.884;9.192;2023-03-25T01:31:25;2.47;;;1.02;;
568;SDS011;269;48.884;9.192;2023-03-25T01:33:54;1.00;;;0.70;;
568;SDS011;269;48.884;9.192;2023-03-25T01:36:22;4.88;;;1.00;;
568;SDS011;269;48.884;9.192;2023-03-25T01:38:50;2.83;;;1.20;;
568;SDS011;269;48.884;9.192;2023-03-25T01:41:17;1.95;;;0.80;;
568;SDS011;269;48.884;9.192;2023-03-25T01:46:38;1.88;;;0.60;;
568;SDS011;269;48.884;9.192;2023-03-25T01:49:10;1.95;;;0.98;;
568;SDS011;269;48.884;9.192;2023-03-25T01:51:42;1.67;;;1.15;;
568;SDS011;269;48.884;9.192;2023-03-25T01:54:11;3.70;;;1.13;;
568;SDS011;269;48.884;9.192;2023-03-25T01:56:42;1.63;;;0.80;;
568;SDS011;269;48.884;9.192;2023-03-25T01:59:12;1.25;;;0.85;;
568;SDS011;269;48.884;9.192;2023-03-25T02:01:44;2.95;;;0.80;;
568;SDS011;269;48.884;9.192;2023-03-25T02:04:11;2.70;;;0.80;;
568;SDS011;269;48.884;9.192;2023-03-25T02:06:41;1.73;;;0.80;;
568;SDS011;269;48.884;9.192;2023-03-25T02:09:10;1.65;;;0.85;;
568;SDS011;269;48.884;9.192;2023-03-25T02:11:40;2.50;;;1.13;;
568;SDS011;269;48.884;9.192;2023-03-25T02:14:07;2.25;;;0.70;;
568;SDS011;269;48.884;9.192;2023-03-25T02:16:40;2.08;;;0.95;;
568;SDS011;269;48.884;9.192;2023-03-25T02:25:34;3.88;;;1.30;;
568;SDS011;269;48.884;9.192;2023-03-25T02:28:15;3.53;;;1.20;;
568;SDS011;269;48.884;9.192;2023-03-25T02:31:01;3.03;;;0.95;;
568;SDS011;269;48.884;9.192;2023-03-25T02:34:00;1.58;;;1.33;;
568;SDS011;269;48.884;9.192;2023-03-25T02:36:59;1.38;;;1.10;;
568;SDS011;269;48.884;9.192;2023-03-25T02:39:48;3.33;;;1.40;;
568;SDS011;269;48.884;9.192;2023-03-25T02:42:19;1.88;;;0.88;;
568;SDS011;269;48.884;9.192;2023-03-25T02:44:53;1.73;;;0.80;;
568;SDS011;269;48.884;9.192;2023-03-25T02:47:25;1.60;;;0.70;;
568;SDS011;269;48.884;9.192;2023-03-25T02:49:57;1.90;;;0.60;;
568;SDS011;269;48.884;9.192;2023-03-25T02:52:30;2.25;;;0.60;;
568;SDS011;269;48.884;9.192;2023-03-25T02:55:04;1.73;;;0.70;;
568;SDS011;269;48.884;9.192;2023-03-25T02:57:35;0.95;;;0.63;;
568;SDS011;269;48.884;9.192;2023-03-25T03:00:06;1.77;;;0.70;;
568;SDS011;269;48.884;9.192;2023-03-25T03:02:39;0.68;;;0.55;;
568;SDS011;269;48.884;9.192;2023-03-25T03:05:23;1.08;;;0.70;;
568;SDS011;269;48.884;9.192;2023-03-25T03:07:52;0.70;;;0.50;;
568;SDS011;269;48.884;9.192;2023-03-25T03:10:41;0.95;;;0.60;;
568;SDS011;269;48.884;9.192;2023-03-25T03:13:18;0.60;;;0.50;;
568;SDS011;269;48.884;9.192;2023-03-25T03:15:54;1.33;;;0.60;;
568;SDS011;269;48.884;9.192;2023-03-25T03:18:35;1.27;;;0.65;;
568;SDS011;269;48.884;9.192;2023-03-25T03:21:11;1.45;;;0.60;;
568;SDS011;269;48.884;9.192;2023-03-25T03:23:45;0.75;;;0.40;;
568;SDS011;269;48.884;9.192;2023-03-25T03:26:22;0.75;;;0.70;;
568;SDS011;269;48.884;9.192;2023-03-25T03:28:55;0.60;;;0.60;;
568;SDS011;269;48.884;9.192;2023-03-25T03:31:27;1.88;;;0.70;;
568;SDS011;269;48.884;9.192;2023-03-25T03:34:03;0.60;;;0.55;;
568;SDS011;269;48.884;9.192;2023-03-25T03:36:36;0.90;;;0.60;;
568;SDS011;269;48.884;9.192;2023-03-25T03:39:08;2.17;;;0.77;;
568;SDS011;269;48.884;9.192;2023-03-25T03:41:42;1.25;;;0.70;;
568;SDS011;269;48.884;9.192;2023-03-25T03:44:15;0.60;;;0.60;;
568;SDS011;269;48.884;9.192;2023-03-25T03:46:47;2.33;;;0.93;;
568;SDS011;269;48.884;9.192;2023-03-25T03:49:20;0.80;;;0.68;;
568;SDS011;269;48.884;9.192;2023-03-25T03:51:52;1.17;;;0.77;;
568;SDS011;269;48.884;9.192;2023-03-25T03:54:24;1.08;;;0.82;;
568;SDS011;269;48.884;9.192;2023-03-25T03:56:54;0.95;;;0.60;;
568;SDS011;269;48.884;9.192;2023-03-25T03:59:26;2.05;;;0.70;;
568;SDS011;269;48.884;9.192;2023-03-25T04:02:03;1.10;;;0.68;;
568;SDS011;269;48.884;9.192;2023-03-25T04:04:36;1.90;;;0.80;;
568;SDS011;269;48.884;9.192;2023-03-25T04:07:04;3.05;;;0.95;;
568;SDS011;269;48.884;9.192;2023-03-25T04:09:41;2.92;;;0.82;;
568;SDS011;269;48.884;9.192;2023-03-25T04:12:21;1.77;;;0.70;;
568;SDS011;269;48.884;9.192;2023-03-25T04:14:51;0.95;;;0.65;;
568;SDS011;269;48.884;9.192;2023-03-25T04:17:19;1.30;;;0.70;;
568;SDS011;269;48.884;9.192;2023-03-25T04:19:46;1.58;;;0.60;;
568;SDS011;269;48.884;9.192;2023-03-25T04:22:14;1.20;;;0.85;;
568;SDS011;269;48.884;9.192;2023-03-25T04:24:43;1.30;;;0.73;;
568;SDS011;269;48.884;9.192;2023-03-25T04:27:14;1.15;;;0.60;;
568;SDS011;269;48.884;9.192;2023-03-25T04:29:43;1.90;;;0.90;;
568;SDS011;269;48.884;9.192;2023-03-25T04:32:12;1.40;;;0.60;;
568;SDS011;269;48.884;9.192;2023-03-25T04:34:39;1.23;;;0.85;;
568;SDS011;269;48.884;9.192;2023-03-25T04:37:06;1.30;;;0.68;;
568;SDS011;269;48.884;9.192;2023-03-25T04:39:33;2.10;;;0.70;;
568;SDS011;269;48.884;9.192;2023-03-25T04:42:01;1.55;;;0.75;;
568;SDS011;269;48.884;9.192;2023-03-25T04:44:28;1.00;;;0.68;;
568;SDS011;269;48.884;9.192;2023-03-25T04:46:59;2.38;;;0.70;;
568;SDS011;269;48.884;9.192;2023-03-25T04:49:28;1.38;;;0.70;;
568;SDS011;269;48.884;9.192;2023-03-25T04:51:55;1.08;;;0.60;;
568;SDS011;269;48.884;9.192;2023-03-25T04:54:23;0.75;;;0.60;;
568;SDS011;269;48.884;9.192;2023-03-25T04:56:51;1.63;;;0.70;;
568;SDS011;269;48.884;9.192;2023-03-25T04:59:18;1.48;;;0.75;;
568;SDS011;269;48.884;9.192;2023-03-25T05:01:47;1.20;;;0.68;;
568;SDS011;269;48.884;9.192;2023-03-25T05:04:16;1.58;;;0.70;;
568;SDS011;269;48.884;9.192;2023-03-25T05:06:45;1.30;;;0.80;;
568;SDS011;269;48.884;9.192;2023-03-25T05:09:15;1.15;;;0.70;;
568;SDS011;269;48.884;9.192;2023-03-25T05:11:44;2.13;;;0.80;;
568;SDS011;269;48.884;9.192;2023-03-25T05:14:12;2.22;;;0.88;;
568;SDS011;269;48.884;9.192;2023-03-25T05:16:41;2.28;;;0.95;;
568;SDS011;269;48.884;9.192;2023-03-25T05:19:08;2.47;;;0.90;;
568;SDS011;269;48.884;9.192;2023-03-25T05:21:37;2.40;;;1.00;;
568;SDS011;269;48.884;9.192;2023-03-25T05:24:05;2.55;;;1.00;;
568;SDS011;269;48.884;9.192;2023-03-25T05:26:34;2.15;;;1.08;;
568;SDS011;269;48.884;9.192;2023-03-25T05:29:02;2.40;;;0.95;;
568;SDS011;269;48.884;9.192;2023-03-25T05:31:31;1.85;;;0.80;;
568;SDS011;269;48.884;9.192;2023-03-25T05:33:58;2.90;;;0.93;;
568;SDS011;269;48.884;9.192;2023-03-25T05:36:25;1.10;;;0.80;;
568;SDS011;269;48.884;9.192;2023-03-25T05:38:55;2.65;;;0.98;;
568;SDS011;269;48.884;9.192;2023-03-25T05:41:22;2.20;;;1.10;;
568;SDS011;269;48.884;9.192;2023-03-25T05:43:57;1.75;;;0.90;;
568;SDS011;269;48.884;9.192;2023-03-25T05:46:25;2.55;;;1.00;;
568;SDS011;269;48.884;9.192;2023-03-25T05:48:53;4.20;;;1.13;;
568;SDS011;269;48.884;9.192;2023-03-25T05:51:22;2.03;;;1.10;;
568;SDS011;269;48.884;9.192;2023-03-25T05:53:50;2.65;;;1.02;;
568;SDS011;269;48.884;9.192;2023-03-25T05:56:20;3.45;;;1.13;;
568;SDS011;269;48.884;9.192;2023-03-25T05:58:49;1.98;;;0.93;;
568;SDS011;269;48.884;9.192;2023-03-25T06:01:18;2.95;;;1.00;;
568;SDS011;269;48.884;9.192;2023-03-25T06:03:46;1.52;;;1.02;;
568;SDS011;269;48.884;9.192;2023-03-25T06:06:13;3.00;;;1.30;;
568;SDS011;269;48.884;9.192;2023-03-25T06:08:43;2.88;;;0.90;;
568;SDS011;269;48.884;9.192;2023-03-25T06:11:11;2.75;;;1.10;;
568;SDS011;269;48.884;9.192;2023-03-25T06:13:40;4.28;;;1.48;;
568;SDS011;269;48.884;9.192;2023-03-25T06:16:14;3.30;;;0.80;;
568;SDS011;269;48.884;9.192;2023-03-25T06:18:44;1.83;;;1.17;;
568;SDS011;269;48.884;9.192;2023-03-25T06:21:15;2.20;;;1.10;;
568;SDS011;269;48.884;9.192;2023-03-25T06:23:43;3.90;;;1.17;;
568;SDS011;269;48.884;9.192;2023-03-25T06:26:10;4.00;;;1.23;;
568;SDS011;269;48.884;9.192;2023-03-25T06:28:37;2.33;;;0.90;;
568;SDS011;269;48.884;9.192;2023-03-25T06:31:07;2.70;;;1.48;;
568;SDS011;269;48.884;9.192;2023-03-25T06:33:37;3.85;;;1.17;;
568;SDS011;269;48.884;9.192;2023-03-25T06:36:06;4.63;;;1.17;;
568;SDS011;269;48.884;9.192;2023-03-25T06:38:35;4.20;;;1.40;;
568;SDS011;269;48.884;9.192;2023-03-25T06:41:03;5.70;;;1.40;;
568;SDS011;269;48.884;9.192;2023-03-25T06:43:31;5.32;;;1.15;;
568;SDS011;269;48.884;9.192;2023-03-25T06:45:58;2.97;;;1.00;;
568;SDS011;269;48.884;9.192;2023-03-25T06:48:27;3.22;;;1.25;;
568;SDS011;269;48.884;9.192;2023-03-25T06:50:54;3.38;;;1.40;;
568;SDS011;269;48.884;9.192;2023-03-25T06:53:22;2.88;;;1.27;;
568;SDS011;269;48.884;9.192;2023-03-25T06:55:49;3.83;;;1.67;;
568;SDS011;269;48.884;9.192;2023-03-25T06:58:16;1.95;;;0.90;;
568;SDS011;269;48.884;9.192;2023-03-25T07:00:43;3.15;;;1.05;;
568;SDS011;269;48.884;9.192;2023-03-25T07:03:10;3.13;;;1.00;;
568;SDS011;269;48.884;9.192;2023-03-25T07:05:40;3.92;;;1.20;;
568;SDS011;269;48.884;9.192;2023-03-25T07:08:08;3.65;;;1.17;;
568;SDS011;269;48.884;9.192;2023-03-25T07:10:35;2.30;;;1.10;;
568;SDS011;269;48.884;9.192;2023-03-25T07:13:02;1.65;;;1.02;;
568;SDS011;269;48.884;9.192;2023-03-25T07:15:29;4.82;;;1.27;;
568;SDS011;269;48.884;9.192;2023-03-25T07:17:56;2.28;;;0.90;;
568;SDS011;269;48.884;9.192;2023-03-25T07:20:23;1.10;;;0.90;;
568;SDS011;269;48.884;9.192;2023-03-25T07:22:53;5.97;;;1.65;;
568;SDS011;269;48.884;9.192;2023-03-25T07:25:20;2.70;;;1.00;;
568;SDS011;269;48.884;9.192;2023-03-25T07:27:48;2.67;;;0.90;;
568;SDS011;269;48.884;9.192;2023-03-25T07:30:15;1.83;;;1.10;;
568;SDS011;269;48.884;9.192;2023-03-25T07:32:42;1.58;;;0.82;;
568;SDS011;269;48.884;9.192;2023-03-25T07:35:10;1.92;;;0.70;;
568;SDS011;269;48.884;9.192;2023-03-25T07:37:37;1.73;;;0.90;;
568;SDS011;269;48.884;9.192;2023-03-25T07:40:06;1.80;;;1.10;;
568;SDS011;269;48.884;9.192;2023-03-25T07:42:34;2.80;;;0.90;;
568;SDS011;269;48.884;9.192;2023-03-25T07:45:02;2.00;;;0.88;;
568;SDS011;269;48.884;9.192;2023-03-25T07:47:30;2.97;;;1.00;;
568;SDS011;269;48.884;9.192;2023-03-25T07:49:58;3.40;;;1.20;;
568;SDS011;269;48.884;9.192;2023-03-25T07:52:24;4.65;;;0.95;;
568;SDS011;269;48.884;9.192;2023-03-25T07:54:51;2.03;;;0.77;;
568;SDS011;269;48.884;9.192;2023-03-25T07:57:20;2.75;;;0.90;;
568;SDS011;269;48.884;9.192;2023-03-25T07:59:48;2.35;;;1.23;;
568;SDS011;269;48.884;9.192;2023-03-25T08:02:14;1.80;;;0.95;;
568;SDS011;269;48.884;9.192;2023-03-25T08:04:42;2.60;;;0.90;;
568;SDS011;269;48.884;9.192;2023-03-25T08:07:10;1.50;;;0.93;;
568;SDS011;269;48.884;9.192;2023-03-25T08:09:37;2.80;;;1.10;;
568;SDS011;269;48.884;9.192;2023-03-25T08:12:05;1.85;;;0.82;;
568;SDS011;269;48.884;9.192;2023-03-25T08:14:35;2.00;;;0.80;;
568;SDS011;269;48.884;9.192;2023-03-25T08:17:03;1.75;;;1.10;;
568;SDS011;269;48.884;9.192;2023-03-25T08:19:30;1.40;;;0.90;;
568;SDS011;269;48.884;9.192;2023-03-25T08:21:57;3.60;;;0.90;;
568;SDS011;269;48.884;9.192;2023-03-25T08:24:25;1.88;;;1.20;;
568;SDS011;269;48.884;9.192;2023-03-25T08:26:54;1.23;;;0.80;;
568;SDS011;269;48.884;9.192;2023-03-25T08:29:21;2.65;;;0.90;;
568;SDS011;269;48.884;9.192;2023-03-25T08:31:50;2.10;;;1.00;;
568;SDS011;269;48.884;9.192;2023-03-25T08:34:18;3.22;;;0.90;;
568;SDS011;269;48.884;9.192;2023-03-25T08:36:45;2.25;;;0.80;;
568;SDS011;269;48.884;9.192;2023-03-25T08:39:12;2.28;;;1.10;;
568;SDS011;269;48.884;9.192;2023-03-25T08:41:41;2.10;;;0.80;;
568;SDS011;269;48.884;9.192;2023-03-25T08:44:09;2.25;;;0.93;;
568;SDS011;269;48.884;9.192;2023-03-25T08:46:36;2.75;;;1.00;;
568;SDS011;269;48.884;9.192;2023-03-25T08:49:05;2.20;;;1.00;;
568;SDS011;269;48.884;9.192;2023-03-25T08:51:32;2.10;;;1.20;;
568;SDS011;269;48.884;9.192;2023-03-25T08:53:59;1.80;;;0.80;;
568;SDS011;269;48.884;9.192;2023-03-25T08:56:26;1.60;;;0.70;;
568;SDS011;269;48.884;9.192;2023-03-25T08:58:53;1.45;;;0.63;;
568;SDS011;269;48.884;9.192;2023-03-25T09:01:20;1.38;;;0.60;;
568;SDS011;269;48.884;9.192;2023-03-25T09:03:49;0.70;;;0.65;;
568;SDS011;269;48.884;9.192;2023-03-25T09:06:17;0.85;;;0.70;;
568;SDS011;269;48.884;9.192;2023-03-25T09:08:45;1.25;;;0.70;;
568;SDS011;269;48.884;9.192;2023-03-25T09:11:12;0.60;;;0.60;;
568;SDS011;269;48.884;9.192;2023-03-25T09:13:39;0.50;;;0.43;;
568;SDS011;269;48.884;9.192;2023-03-25T09:16:07;1.23;;;0.57;;
568;SDS011;269;48.884;9.192;2023-03-25T09:18:35;1.60;;;0.52;;
568;SDS011;269;48.884;9.192;2023-03-25T09:21:02;0.75;;;0.60;;
568;SDS011;269;48.884;9.192;2023-03-25T09:23:31;0.80;;;0.50;;
568;SDS011;269;48.884;9.192;2023-03-25T09:25:59;1.25;;;0.70;;
568;SDS011;269;48.884;9.192;2023-03-25T09:28:28;0.57;;;0.50;;
568;SDS011;269;48.884;9.192;2023-03-25T09:30:55;1.30;;;0.70;;
568;SDS011;269;48.884;9.192;2023-03-25T09:33:22;0.68;;;0.60;;
568;SDS011;269;48.884;9.192;2023-03-25T09:35:51;0.80;;;0.63;;
568;SDS011;269;48.884;9.192;2023-03-25T09:38:18;0.93;;;0.50;;
568;SDS011;269;48.884;9.192;2023-03-25T09:40:48;0.70;;;0.63;;
568;SDS011;269;48.884;9.192;2023-03-25T09:43:33;0.77;;;0.55;;
568;SDS011;269;48.884;9.192;2023-03-25T09:46:13;1.17;;;0.55;;
568;SDS011;269;48.884;9.192;2023-03-25T09:48:41;0.70;;;0.60;;
568;SDS011;269;48.884;9.192;2023-03-25T09:51:12;0.80;;;0.60;;
568;SDS011;269;48.884;9.192;2023-03-25T09:53:42;1.20;;;0.70;;
568;SDS011;269;48.884;9.192;2023-03-25T09:56:15;1.15;;;0.50;;
568;SDS011;269;48.884;9.192;2023-03-25T09:58:46;1.60;;;0.73;;
568;SDS011;269;48.884;9.192;2023-03-25T10:01:20;1.65;;;0.60;;
568;SDS011;269;48.884;9.192;2023-03-25T10:03:53;0.70;;;0.60;;
568;SDS011;269;48.884;9.192;2023-03-25T10:06:26;1.13;;;0.65;;
568;SDS011;269;48.884;9.192;2023-03-25T10:08:59;0.85;;;0.60;;
568;SDS011;269;48.884;9.192;2023-03-25T10:11:38;1.05;;;0.60;;
568;SDS011;269;48.884;9.192;2023-03-25T10:14:13;1.10;;;0.70;;
568;SDS011;269;48.884;9.192;2023-03-25T10:16:48;0.73;;;0.55;;
568;SDS011;269;48.884;9.192;2023-03-25T10:19:27;1.45;;;0.70;;
568;SDS011;269;48.884;9.192;2023-03-25T10:22:03;0.70;;;0.60;;
568;SDS011;269;48.884;9.192;2023-03-25T10:24:35;1.20;;;0.52;;
568;SDS011;269;48.884;9.192;2023-03-25T10:27:11;1.02;;;0.75;;
568;SDS011;269;48.884;9.192;2023-03-25T10:29:44;0.90;;;0.70;;
568;SDS011;269;48.884;9.192;2023-03-25T10:32:15;1.52;;;0.80;;
568;SDS011;269;48.884;9.192;2023-03-25T10:34:44;1.45;;;0.60;;
568;SDS011;269;48.884;9.192;2023-03-25T10:37:17;2.58;;;0.70;;
568;SDS011;269;48.884;9.192;2023-03-25T10:39:53;0.80;;;0.60;;
568;SDS011;269;48.884;9.192;2023-03-25T10:42:26;1.25;;;0.70;;
568;SDS011;269;48.884;9.192;2023-03-25T10:44:59;1.27;;;0.70;;
568;SDS011;269;48.884;9.192;2023-03-25T10:47:27;1.55;;;0.80;;
568;SDS011;269;48.884;9.192;2023-03-25T10:49:57;1.35;;;0.60;;
568;SDS011;269;48.884;9.192;2023-03-25T10:52:25;2.22;;;0.70;;
568;SDS011;269;48.884;9.192;2023-03-25T10:54:52;0.90;;;0.60;;
568;SDS011;269;48.884;9.192;2023-03-25T10:57:21;1.15;;;0.80;;
568;SDS011;269;48.884;9.192;2023-03-25T10:59:55;1.10;;;0.90;;
568;SDS011;269;48.884;9.192;2023-03-25T11:02:26;1.33;;;0.85;;
568;SDS011;269;48.884;9.192;2023-03-25T11:04:56;1.35;;;0.80;;
568;SDS011;269;48.884;9.192;2023-03-25T11:07:26;1.98;;;0.73;;
568;SDS011;269;48.884;9.192;2023-03-25T11:10:07;1.15;;;0.65;;
568;SDS011;269;48.884;9.192;2023-03-25T11:12:42;1.42;;;0.70;;
568;SDS011;269;48.884;9.192;2023-03-25T11:15:13;1.63;;;0.73;;
568;SDS011;269;48.884;9.192;2023-03-25T11:17:42;1.17;;;0.77;;
568;SDS011;269;48.884;9.192;2023-03-25T11:20:19;1.60;;;0.77;;
568;SDS011;269;48.884;9.192;2023-03-25T11:22:51;0.60;;;0.60;;
568;SDS011;269;48.884;9.192;2023-03-25T11:25:22;2.93;;;0.80;;
568;SDS011;269;48.884;9.192;2023-03-25T11:27:51;1.10;;;0.60;;
568;SDS011;269;48.884;9.192;2023-03-25T11:30:23;1.00;;;0.60;;
568;SDS011;269;48.884;9.192;2023-03-25T11:32:57;0.70;;;0.60;;
568;SDS011;269;48.884;9.192;2023-03-25T11:35:29;0.90;;;0.60;;
568;SDS011;269;48.884;9.192;2023-03-25T11:37:59;2.40;;;0.77;;
568;SDS011;269;48.884;9.192;2023-03-25T11:40:34;1.43;;;0.80;;
568;SDS011;269;48.884;9.192;2023-03-25T11:43:01;1.50;;;0.70;;
568;SDS011;269;48.884;9.192;2023-03-25T11:45:32;1.33;;;0.60;;
568;SDS011;269;48.884;9.192;2023-03-25T11:48:08;1.30;;;0.80;;
568;SDS011;269;48.884;9.192;2023-03-25T11:50:37;1.30;;;0.80;;
568;SDS011;269;48.884;9.192;2023-03-25T11:53:11;2.73;;;1.07;;
568;SDS011;269;48.884;9.192;2023-03-25T11:55:43;1.37;;;0.90;;
568;SDS011;269;48.884;9.192;2023-03-25T11:58:13;3.80;;;0.80;;
568;SDS011;269;48.884;9.192;2023-03-25T12:00:46;1.60;;;0.70;;
568;SDS011;269;48.884;9.192;2023-03-25T12:03:17;3.23;;;0.93;;
568;SDS011;269;48.884;9.192;2023-03-25T12:05:56;2.40;;;0.77;;
568;SDS011;269;48.884;9.192;2023-03-25T12:08:27;1.90;;;1.00;;
568;SDS011;269;48.884;9.192;2023-03-25T12:10:57;1.53;;;0.70;;
568;SDS011;269;48.884;9.192;2023-03-25T12:13:34;1.37;;;0.70;;
568;SDS011;269;48.884;9.192;2023-03-25T12:16:15;2.67;;;0.70;;
568;SDS011;269;48.884;9.192;2023-03-25T12:19:01;1.80;;;0.83;;
568;SDS011;269;48.884;9.192;2023-03-25T12:21:40;4.83;;;0.80;;
568;SDS011;269;48.884;9.192;2023-03-25T12:24:22;1.63;;;0.80;;
568;SDS011;269;48.884;9.192;2023-03-25T12:27:05;1.83;;;0.73;;
568;SDS011;269;48.884;9.192;2023-03-25T12:29:43;2.07;;;0.80;;
568;SDS011;269;48.884;9.192;2023-03-25T12:32:21;2.27;;;0.80;;
568;SDS011;269;48.884;9.192;2023-03-25T12:35:02;1.20;;;0.80;;
568;SDS011;269;48.884;9.192;2023-03-25T12:37:43;2.65;;;0.80;;
568;SDS011;269;48.884;9.192;2023-03-25T12:40:29;1.50;;;0.90;;
568;SDS011;269;48.884;9.192;2023-03-25T12:43:12;1.63;;;0.70;;
568;SDS011;269;48.884;9.192;2023-03-25T12:45:47;2.22;;;0.60;;
568;SDS011;269;48.884;9.192;2023-03-25T12:48:30;1.23;;;0.60;;
568;SDS011;269;48.884;9.192;2023-03-25T12:51:08;1.77;;;0.70;;
568;SDS011;269;48.884;9.192;2023-03-25T12:53:46;1.35;;;0.80;;
568;SDS011;269;48.884;9.192;2023-03-25T12:56:28;1.40;;;0.60;;
568;SDS011;269;48.884;9.192;2023-03-25T12:59:13;3.00;;;0.70;;
568;SDS011;269;48.884;9.192;2023-03-25T13:01:53;1.70;;;0.80;;
568;SDS011;269;48.884;9.192;2023-03-25T13:04:35;1.10;;;0.70;;
568;SDS011;269;48.884;9.192;2023-03-25T13:07:10;0.90;;;0.70;;
568;SDS011;269;48.884;9.192;2023-03-25T13:09:44;1.30;;;0.80;;
568;SDS011;269;48.884;9.192;2023-03-25T13:12:22;1.93;;;0.60;;
568;SDS011;269;48.884;9.192;2023-03-25T13:14:55;0.97;;;0.70;;
568;SDS011;269;48.884;9.192;2023-03-25T13:17:28;1.87;;;0.90;;
568;SDS011;269;48.884;9.192;2023-03-25T13:20:01;1.47;;;0.60;;
568;SDS011;269;48.884;9.192;2023-03-25T13:22:35;2.13;;;0.70;;
568;SDS011;269;48.884;9.192;2023-03-25T13:25:05;1.40;;;0.70;;
568;SDS011;269;48.884;9.192;2023-03-25T13:27:40;1.20;;;0.73;;
568;SDS011;269;48.884;9.192;2023-03-25T13:30:12;1.87;;;0.90;;
568;SDS011;269;48.884;9.192;2023-03-25T13:32:43;1.70;;;0.90;;
568;SDS011;269;48.884;9.192;2023-03-25T13:35:17;2.93;;;0.97;;
568;SDS011;269;48.884;9.192;2023-03-25T13:37:48;1.50;;;0.60;;
568;SDS011;269;48.884;9.192;2023-03-25T13:40:21;1.33;;;0.73;;
568;SDS011;269;48.884;9.192;2023-03-25T13:42:54;1.00;;;0.60;;
568;SDS011;269;48.884;9.192;2023-03-25T13:45:24;1.43;;;0.80;;
568;SDS011;269;48.884;9.192;2023-03-25T13:47:58;1.47;;;0.70;;
568;SDS011;269;48.884;9.192;2023-03-25T13:50:31;1.80;;;0.70;;
568;SDS011;269;48.884;9.192;2023-03-25T13:53:02;1.53;;;0.77;;
568;SDS011;269;48.884;9.192;2023-03-25T13:55:32;1.40;;;0.80;;
568;SDS011;269;48.884;9.192;2023-03-25T13:58:12;1.53;;;0.60;;
568;SDS011;269;48.884;9.192;2023-03-25T14:07:06;2.03;;;0.80;;
568;SDS011;269;48.884;9.192;2023-03-25T14:10:02;1.57;;;0.70;;
568;SDS011;269;48.884;9.192;2023-03-25T14:12:53;1.30;;;0.80;;
568;SDS011;269;48.884;9.192;2023-03-25T14:15:25;0.90;;;0.80;;
568;SDS011;269;48.884;9.192;2023-03-25T14:17:56;2.17;;;1.00;;
568;SDS011;269;48.884;9.192;2023-03-25T14:20:25;1.98;;;0.77;;
568;SDS011;269;48.884;9.192;2023-03-25T14:23:00;2.83;;;0.80;;
568;SDS011;269;48.884;9.192;2023-03-25T14:25:32;1.20;;;0.73;;
568;SDS011;269;48.884;9.192;2023-03-25T14:28:02;1.92;;;1.10;;
568;SDS011;269;48.884;9.192;2023-03-25T14:30:32;1.77;;;0.77;;
568;SDS011;269;48.884;9.192;2023-03-25T14:33:00;0.80;;;0.77;;
568;SDS011;269;48.884;9.192;2023-03-25T14:38:19;1.50;;;0.73;;
568;SDS011;269;48.884;9.192;2023-03-25T14:41:07;1.90;;;0.93;;
568;SDS011;269;48.884;9.192;2023-03-25T14:43:35;0.90;;;0.77;;
568;SDS011;269;48.884;9.192;2023-03-25T14:46:05;1.60;;;1.00;;
568;SDS011;269;48.884;9.192;2023-03-25T14:48:43;1.97;;;1.20;;
568;SDS011;269;48.884;9.192;2023-03-25T14:51:19;1.23;;;0.87;;
568;SDS011;269;48.884;9.192;2023-03-25T14:54:16;1.27;;;0.70;;
568;SDS011;269;48.884;9.192;2023-03-25T14:56:48;2.50;;;0.93;;
568;SDS011;269;48.884;9.192;2023-03-25T14:59:21;1.93;;;1.00;;
568;SDS011;269;48.884;9.192;2023-03-25T15:01:53;1.50;;;0.90;;
568;SDS011;269;48.884;9.192;2023-03-25T15:04:26;5.33;;;1.37;;
568;SDS011;269;48.884;9.192;2023-03-25T15:06:56;1.90;;;0.97;;
568;SDS011;269;48.884;9.192;2023-03-25T15:09:24;1.20;;;0.80;;
568;SDS011;269;48.884;9.192;2023-03-25T15:11:54;1.40;;;0.90;;
568;SDS011;269;48.884;9.192;2023-03-25T15:14:23;2.70;;;1.30;;
568;SDS011;269;48.884;9.192;2023-03-25T15:16:56;1.63;;;1.07;;
568;SDS011;269;48.884;9.192;2023-03-25T15:19:25;2.50;;;1.30;;
568;SDS011;269;48.884;9.192;2023-03-25T15:24:48;1.70;;;0.93;;
568;SDS011;269;48.884;9.192;2023-03-25T15:27:23;2.40;;;1.27;;
568;SDS011;269;48.884;9.192;2023-03-25T15:30:00;3.50;;;1.40;;
568;SDS011;269;48.884;9.192;2023-03-25T15:32:39;2.23;;;0.87;;
568;SDS011;269;48.884;9.192;2023-03-25T15:41:21;2.30;;;1.30;;
568;SDS011;269;48.884;9.192;2023-03-25T15:44:31;1.83;;;1.00;;
568;SDS011;269;48.884;9.192;2023-03-25T15:47:27;1.50;;;0.97;;
568;SDS011;269;48.884;9.192;2023-03-25T15:55:52;2.30;;;1.13;;
568;SDS011;269;48.884;9.192;2023-03-25T15:58:27;2.23;;;1.30;;
568;SDS011;269;48.884;9.192;2023-03-25T16:00:59;2.70;;;1.20;;
568;SDS011;269;48.884;9.192;2023-03-25T16:03:33;3.80;;;1.17;;
568;SDS011;269;48.884;9.192;2023-03-25T16:06:03;2.57;;;1.10;;
568;SDS011;269;48.884;9.192;2023-03-25T16:08:33;1.90;;;1.00;;
568;SDS011;269;48.884;9.192;2023-03-25T16:11:12;2.40;;;1.03;;
568;SDS011;269;48.884;9.192;2023-03-25T16:13:42;2.73;;;1.10;;
568;SDS011;269;48.884;9.192;2023-03-25T16:16:09;1.73;;;0.90;;
568;SDS011;269;48.884;9.192;2023-03-25T16:18:37;2.43;;;1.30;;
568;SDS011;269;48.884;9.192;2023-03-25T16:21:06;4.40;;;1.40;;
568;SDS011;269;48.884;9.192;2023-03-25T16:23:33;1.60;;;1.20;;
568;SDS011;269;48.884;9.192;2023-03-25T16:26:02;3.07;;;1.07;;
568;SDS011;269;48.884;9.192;2023-03-25T16:28:30;2.60;;;1.03;;
568;SDS011;269;48.884;9.192;2023-03-25T16:31:01;2.40;;;0.97;;
568;SDS011;269;48.884;9.192;2023-03-25T16:33:29;2.70;;;1.30;;
568;SDS011;269;48.884;9.192;2023-03-25T16:35:57;3.00;;;1.50;;
568;SDS011;269;48.884;9.192;2023-03-25T16:38:26;3.47;;;1.20;;
568;SDS011;269;48.884;9.192;2023-03-25T16:40:58;2.43;;;1.10;;
568;SDS011;269;48.884;9.192;2023-03-25T16:43:26;3.03;;;0.93;;
568;SDS011;269;48.884;9.192;2023-03-25T16:45:55;4.40;;;1.20;;